Latest Coastal Weather Observations for Cape Borda

IDT60701

Issued at 4:52 am EST Thursday 3 September 2026 (issued every 10 minutes, with the page automatically refreshed every 10 minutes)

About coastal observations | Map of coastal stations | Coastal observations for TAS | Marine services | Other Formats
Station Details ID: 022823 Name: CAPE BORDA Lat: -35.75 Lon: 136.60 Height: 158.0 m
Data from the previous 72 hours. | See also: Recent months at Cape Borda
Date/Time
EST
Wind Sea
Height
m
Swell Vis
km
Cloud Weather Temp
°C
Press
MSL
hPa
Rain since
9am
mm
Dir  Spd
kts
Gust
kts
Height
m
Period
s
Dir
03/04:30am W 21 29 - - - - - - - 13.6 1013.5 0.2
03/04:00am W 21 29 - - - - - - - 13.4 1013.6 0.2
03/03:57am W 20 27 - - - - - - - 13.3 1013.6 0.2
03/03:46am W 19 29 - - - - - - - 13.4 1013.8 0.2
03/03:30am W 20 27 - - - - - - - 13.0 1013.8 0.2
03/03:00am W 19 26 - - - - - - - 13.7 1013.9 0.2
03/02:44am W 21 28 - - - - - - - 13.8 1013.9 0.2
03/02:30am W 19 32 - - - - - - - 13.7 1013.9 0.2
03/02:25am W 19 32 - - - - - - - 13.6 1013.9 0.2
03/02:00am W 19 25 - - - - - - - 13.6 1013.8 0.2
03/01:30am W 19 26 - - - - - - - 13.6 1013.8 0.2
03/01:00am W 18 24 - - - - - - - 13.5 1014.0 0.2
03/12:30am W 17 23 - - - - - - - 13.4 1014.1 0.2
03/12:00am W 18 26 - - - - - - - 13.3 1014.4 0.2
 
Date/Time
EST
Wind Sea
Height
m
Swell Vis
km
Cloud Weather Temp
°C
Press
MSL
hPa
Rain since
9am
mm
Dir  Spd
kts
Gust
kts
Height
m
Period
s
Dir
02/11:30pm WNW 19 25 - - - - - - - 13.3 1014.6 0.2
02/11:02pm W 15 22 - - - - - - - 13.3 1014.8 0.2
02/11:00pm W 16 23 - - - - - - - 13.3 1014.8 0.2
02/10:48pm W 19 29 - - - - - - - 13.2 1014.9 0.2
02/10:30pm WNW 17 23 - - - - - - - 13.3 1015.0 0.2
02/10:00pm WNW 15 23 - - - - - - - 12.7 1015.0 0.2
02/09:35pm WNW 14 18 - - - - - - - 11.8 1014.8 0.2
02/09:30pm WNW 15 24 - - - - - - Recent precip. 11.5 1014.8 0.2
02/09:24pm W 17 27 - - - - - - - 11.4 1014.8 0.2
02/09:22pm W 19 27 - - - - - - - 11.4 1014.7 0.2
02/09:10pm WNW 15 26 - - - - - - - 12.6 1014.8 0.2
02/09:02pm WNW 14 20 - - - - - - - 12.4 1014.7 0.0
02/09:00pm WNW 14 20 - - - - - - - 12.4 1014.7 0.0
02/08:43pm WNW 17 27 - - - - - - - 12.5 1014.6 0.0
02/08:30pm W 15 22 - - - - - - - 12.0 1014.6 0.0
02/08:00pm WNW 17 21 - - - - - - - 12.7 1014.6 0.0
02/07:55pm WNW 16 21 - - - - - - - 12.6 1014.6 0.0
02/07:36pm WNW 17 27 - - - - - - - 12.5 1014.5 0.0
02/07:30pm WNW 15 21 - - - - - - - 12.5 1014.4 0.0
02/07:00pm WNW 14 20 - - - - - - - 12.7 1014.0 0.0
02/06:51pm WNW 16 21 - - - - - - - 12.5 1014.0 0.0
02/06:38pm WNW 15 25 - - - - - - - 12.2 1014.0 0.0
02/06:30pm W 14 22 - - - - - - - 12.3 1013.9 0.0
02/06:00pm WNW 14 18 - - - - - - - 12.7 1013.6 0.0
02/05:30pm WNW 15 21 - - - - - - - 12.6 1013.7 0.0
02/05:00pm WNW 13 19 - - - - - - - 12.6 1013.7 0.0
02/04:30pm WNW 14 19 - - - - - - - 13.4 1013.8 0.0
02/04:00pm W 14 22 - - - - - - - 12.8 1014.1 0.0
02/03:30pm WNW 14 18 - - - - - - - 13.1 1014.3 0.0
02/03:00pm WNW 11 17 - - - - - - - 12.8 1014.5 0.0
02/02:30pm WNW 13 18 - - - - - - - 12.7 1014.6 0.0
02/02:00pm WNW 13 19 - - - - - - - 13.3 1014.9 0.0
02/01:30pm WNW 12 17 - - - - - - - 13.4 1015.2 0.0
02/01:00pm WNW 12 16 - - - - - - - 13.3 1015.5 0.0
02/12:30pm WNW 12 17 - - - - - - - 12.8 1015.8 0.0
02/12:00pm W 12 16 - - - - - - - 13.0 1016.1 0.0
02/11:30am W 11 18 - - - - - - - 13.0 1016.3 0.0
02/11:00am WNW 13 17 - - - - - - - 12.9 1016.5 0.0
02/10:30am W 11 17 - - - - - - - 11.6 1016.9 0.0
02/10:00am WNW 10 14 - - - - - - - 12.4 1017.0 0.0
02/09:30am WNW 10 16 - - - - - - - 11.8 1017.0 4.2
02/09:00am W 9 14 - - - - - - - 12.0 1016.9 4.2
02/08:30am W 9 14 - - - - - - - 11.6 1016.9 4.2
02/08:00am W 9 13 - - - - - - - 11.7 1016.7 4.2
02/07:30am WSW 8 13 - - - - - - - 11.4 1016.7 4.2
02/07:00am WSW 13 22 - - - - - - - 11.3 1016.5 4.2
02/06:30am W 9 14 - - - - - - - 11.4 1016.4 4.2
02/06:00am W 10 16 - - - - - - - 11.3 1016.4 4.2
02/05:30am WSW 10 13 - - - - - - - 11.1 1016.4 4.2
02/05:00am WSW 11 15 - - - - - - - 11.4 1016.3 4.2
02/04:30am WSW 11 15 - - - - - - - 11.7 1016.2 4.2
02/04:00am WSW 7 12 - - - - - - - 11.4 1016.3 4.2
02/03:30am W 7 9 - - - - - - - 11.3 1016.6 4.2
02/03:00am WNW 12 17 - - - - - - - 11.4 1016.8 4.2
02/02:30am W 5 8 - - - - - - - 11.1 1017.0 4.2
02/02:00am W 8 13 - - - - - - - 11.5 1017.1 4.2
02/01:30am WSW 10 15 - - - - - - - 11.7 1017.0 4.2
02/01:00am SSW 8 11 - - - - - - - 11.5 1016.9 4.2
02/12:30am SW 7 10 - - - - - - - 10.8 1017.0 4.2
02/12:00am S 5 8 - - - - - - - 11.1 1017.0 4.2
 
Date/Time
EST
Wind Sea
Height
m
Swell Vis
km
Cloud Weather Temp
°C
Press
MSL
hPa
Rain since
9am
mm
Dir  Spd
kts
Gust
kts
Height
m
Period
s
Dir
01/11:30pm SSW 7 11 - - - - - - - 11.8 1017.3 4.2
01/11:00pm SSW 7 9 - - - - - - - 11.4 1017.3 4.2
01/10:30pm SSW 8 13 - - - - - - - 11.6 1017.1 4.2
01/10:00pm SSW 9 13 - - - - - - - 12.2 1017.2 4.2
01/09:30pm SW 10 13 - - - - - - - 12.4 1017.0 4.2
01/09:00pm SW 10 14 - - - - - - - 12.6 1016.8 4.2
01/08:30pm SW 9 13 - - - - - - - 12.8 1016.4 4.2
01/08:00pm SSW 13 17 - - - - - - - 13.1 1016.0 4.2
01/07:30pm SSW 13 19 - - - - - - - 12.8 1015.5 4.2
01/07:00pm SSW 11 17 - - - - - - - 13.1 1015.1 4.2
01/06:30pm SSW 13 17 - - - - - - - 13.5 1014.9 4.2
01/06:00pm SSW 15 21 - - - - - - - 14.0 1014.5 4.2
01/05:30pm SW 14 19 - - - - - - - 14.8 1014.1 4.2
01/05:00pm SW 15 21 - - - - - - - 14.9 1013.6 4.2
01/04:30pm W 12 17 - - - - - - - 15.7 1013.4 4.2
01/04:00pm W 11 16 - - - - - - - 16.4 1013.2 4.2
01/03:30pm WNW 13 20 - - - - - - - 15.2 1013.0 4.2
01/03:00pm WNW 14 20 - - - - - - - 14.9 1013.2 4.2
01/02:30pm NW 15 22 - - - - - - - 14.9 1013.2 4.2
01/02:00pm NW 15 22 - - - - - - - 14.8 1013.3 4.2
01/01:30pm NNW 15 21 - - - - - - - 14.5 1013.3 4.2
01/01:03pm NNW 15 22 - - - - - - - 14.2 1012.7 4.2
01/01:00pm NNW 15 22 - - - - - - - 14.1 1012.6 4.2
01/12:56pm NNW 15 27 - - - - - - - 14.0 1012.5 4.2
01/12:40pm NW 17 27 - - - - - - - 14.1 1014.6 3.2
01/12:30pm NW 18 25 - - - - - - Rain 14.4 1015.2 1.6
01/12:19pm NW 18 26 - - - - - - - 14.6 1015.2 0.8
01/12:09pm NNW 13 24 - - - - - - - 14.7 1015.1 0.6
01/12:00pm N 9 14 - - - - - - - 14.6 1014.6 0.6
01/11:30am N 6 9 - - - - - - - 15.0 1015.4 0.0
01/11:00am N 7 10 - - - - - - - 14.8 1015.2 0.0
01/10:30am N 10 15 - - - - - - - 15.4 1015.7 0.0
01/10:00am NE 11 15 - - - - - - - 15.5 1015.4 0.0
01/09:30am NNE 13 16 - - - - - - - 15.5 1015.7 -
01/09:00am NNE 13 17 - - - - - - - 15.5 1015.9 -
01/08:30am NNE 14 19 - - - - - - - 15.6 1015.6 -
01/08:00am NNE 13 17 - - - - - - - 14.8 1015.5 -
01/07:30am NE 14 20 - - - - - - - 14.6 1015.5 -
01/07:00am NE 13 17 - - - - - - - 14.7 1015.6 -
01/06:30am NE 12 16 - - - - - - - 14.6 1015.8 -
01/06:00am NE 12 17 - - - - - - - 14.5 1015.9 -
01/05:30am NE 11 16 - - - - - - - 14.4 1016.0 -
01/05:00am NE 11 14 - - - - - - - 14.0 1016.2 -
01/04:30am NE 10 15 - - - - - - - 14.0 1016.6 -
01/04:00am NE 11 16 - - - - - - - 14.3 1017.0 -
01/03:30am NNE 10 14 - - - - - - - 14.1 1017.7 0.0
01/03:00am NNE 11 15 - - - - - - - 14.2 1018.4 -
01/02:30am NE 11 15 - - - - - - - 14.1 1018.8 -
01/02:00am NE 12 16 - - - - - - - 14.0 1019.3 -
01/01:30am NE 12 17 - - - - - - - 14.1 1019.7 -
01/01:00am NE 12 17 - - - - - - - 13.8 1020.1 -
01/12:30am NE 12 18 - - - - - - - 14.0 1020.6 -
01/12:00am NE 12 17 - - - - - - - 13.7 1020.8 -
 
Date/Time
EST
Wind Sea
Height
m
Swell Vis
km
Cloud Weather Temp
°C
Press
MSL
hPa
Rain since
9am
mm
Dir  Spd
kts
Gust
kts
Height
m
Period
s
Dir
31/11:30pm NE 11 14 - - - - - - - 13.2 1021.7 -
31/11:00pm NE 10 14 - - - - - - - 13.2 1022.2 -
31/10:30pm NE 9 11 - - - - - - - 13.3 1022.8 -
31/10:00pm NE 8 11 - - - - - - - 13.3 1023.2 -
31/09:30pm NE 9 12 - - - - - - - 12.9 1023.3 0.0
31/09:00pm NE 9 11 - - - - - - - 13.2 1023.5 -
31/08:30pm NE 10 13 - - - - - - - 13.3 1023.4 -
31/08:00pm NE 8 12 - - - - - - - 13.0 1023.5 -
31/07:30pm NE 9 13 - - - - - - - 13.0 1023.7 -
31/07:00pm NE 10 13 - - - - - - - 13.0 1023.9 -
31/06:30pm NE 11 14 - - - - - - - 13.3 1023.8 -
31/06:00pm NE 11 14 - - - - - - - 14.3 1024.1 -
31/05:30pm NE 11 15 - - - - - - - 14.8 1024.3 -
31/05:00pm NE 10 15 - - - - - - - 15.3 1024.7 -
31/04:30pm NE 11 15 - - - - - - - 15.6 1024.9 -
31/04:00pm NNE 13 16 - - - - - - - 15.7 1025.2 -
31/03:30pm NNE 12 16 - - - - - - - 15.8 1025.6 -
31/03:00pm NNE 12 16 - - - - - - - 16.0 1025.9 -
31/02:30pm NE 12 16 - - - - - - - 16.4 1026.1 -
31/02:00pm NE 14 18 - - - - - - - 15.9 1026.6 -
31/01:30pm NE 13 18 - - - - - - - 15.9 1027.2 -
31/01:00pm NE 13 18 - - - - - - - 16.0 1027.7 -
31/12:30pm NE 14 18 - - - - - - - 15.8 1028.4 -
31/12:00pm NNE 12 16 - - - - - - - 15.7 1028.9 -
31/11:30am NNE 12 17 - - - - - - - 15.6 1029.3 -
31/11:00am NNE 12 15 - - - - - - - 15.3 1029.8 -

Other formats

Comma delimited format used in spreadsheet applications
http://www.bom.gov.au/fwo/IDT60701/IDT60701.95805.axf

JavaScript Object Notation format (JSON) in row-major order
http://www.bom.gov.au/fwo/IDT60701/IDT60701.95805.json

Data quality

Most of these data are generated automatically and are frequently updated. Quality checks on data are not normally performed. It is possible for incorrect values to appear. Refer to information at About Latest Weather Observations and please check the disclaimer before using these data.